METAR Data
IDs: Format: Raw Decoded Include TAF

Data at: 1714 UTC 16 Oct 2021

LIRT 161555Z 01003KT 9999 SCT015 SCT020 09/06 Q1016 RMK BKN MON LIB VAL NIL VIS MIN 9999